createdAt,value
2023-03-19T00:03:58.141Z,0.50
2023-03-19T00:08:02.109Z,0.40
2023-03-19T00:12:06.267Z,0.40
2023-03-19T00:16:10.155Z,0.30
2023-03-19T00:20:18.331Z,0.30
2023-03-19T00:24:22.118Z,0.30
2023-03-19T00:28:26.054Z,0.20
2023-03-19T00:32:30.527Z,0.20
2023-03-19T00:36:35.421Z,0.20
2023-03-19T00:40:38.752Z,0.20
2023-03-19T00:44:42.205Z,0.20
2023-03-19T00:48:45.659Z,0.10
2023-03-19T00:52:50.428Z,0.00
2023-03-19T00:56:53.718Z,0.00
2023-03-19T01:00:57.667Z,0.00
2023-03-19T01:05:01.381Z,0.00
2023-03-19T01:09:06.469Z,-0.10
2023-03-19T01:13:09.781Z,-0.10
2023-03-19T01:17:14.205Z,-0.10
2023-03-19T01:21:18.790Z,-0.10
2023-03-19T01:25:23.545Z,-0.20
2023-03-19T01:29:27.054Z,-0.10
2023-03-19T01:33:30.491Z,-0.10
2023-03-19T01:37:34.164Z,-0.10
2023-03-19T01:41:39.144Z,-0.10
2023-03-19T01:45:44.090Z,-0.20
2023-03-19T01:49:55.255Z,-0.30
2023-03-19T01:54:01.890Z,-0.20
2023-03-19T01:58:07.897Z,-0.20
2023-03-19T02:02:23.669Z,-0.20
2023-03-19T02:06:28.531Z,-0.10
2023-03-19T02:10:33.314Z,-0.10
2023-03-19T02:14:38.147Z,-0.10
2023-03-19T02:18:42.221Z,-0.10
2023-03-19T02:22:54.085Z,-0.20
2023-03-19T02:26:59.953Z,-0.10
2023-03-19T02:31:04.941Z,-0.10
2023-03-19T02:35:10.226Z,-0.10
2023-03-19T02:39:20.475Z,-0.10
2023-03-19T02:43:25.292Z,-0.10
2023-03-19T02:47:29.105Z,-0.10
2023-03-19T02:51:32.612Z,-0.20
2023-03-19T02:55:38.033Z,-0.20
2023-03-19T02:59:42.771Z,-0.20
2023-03-19T03:03:47.284Z,-0.20
2023-03-19T03:07:50.905Z,-0.30
2023-03-19T03:11:54.570Z,-0.30
2023-03-19T03:15:59.465Z,-0.40
2023-03-19T03:20:02.989Z,-0.40
2023-03-19T03:24:06.921Z,-0.50
2023-03-19T03:28:10.782Z,-0.50
2023-03-19T03:32:16.170Z,-0.60
2023-03-19T03:36:19.456Z,-0.60
2023-03-19T03:40:22.983Z,-0.60
2023-03-19T03:44:26.597Z,-0.60
2023-03-19T03:48:31.561Z,-0.60
2023-03-19T03:52:42.236Z,-0.70
2023-03-19T03:56:45.753Z,-0.70
2023-03-19T04:00:51.610Z,-0.70
2023-03-19T04:04:56.505Z,-0.70
2023-03-19T04:08:59.959Z,-0.70
2023-03-19T04:13:03.256Z,-0.70
2023-03-19T04:17:08.138Z,-0.80
2023-03-19T04:21:13.969Z,-0.80
2023-03-19T04:25:17.504Z,-0.80
2023-03-19T04:29:21.256Z,-0.80
2023-03-19T04:33:24.900Z,-1.20
2023-03-19T04:37:30.888Z,-0.80
2023-03-19T04:41:34.597Z,-0.90
2023-03-19T04:45:39.009Z,-0.90
2023-03-19T04:49:42.690Z,-0.90
2023-03-19T04:53:49.547Z,-0.90
2023-03-19T04:57:52.900Z,-0.90
2023-03-19T05:01:56.817Z,-1.00
2023-03-19T05:06:00.143Z,-1.00
2023-03-19T05:10:05.805Z,-0.90
2023-03-19T05:14:09.465Z,-1.00
2023-03-19T05:18:13.855Z,-1.00
2023-03-19T05:22:17.325Z,-0.90
2023-03-19T05:26:22.621Z,-0.90
2023-03-19T05:51:03.950Z,-0.80
2023-03-19T05:55:08.492Z,-0.30
2023-03-19T05:59:12.082Z,0.00
2023-03-19T06:03:16.855Z,0.20
2023-03-19T06:07:21.880Z,0.50
2023-03-19T06:11:25.451Z,0.60
2023-03-19T06:15:30.646Z,0.80
2023-03-19T06:19:34.301Z,0.90
2023-03-19T06:23:39.768Z,1.00
2023-03-19T06:27:43.661Z,1.20
2023-03-19T06:31:47.696Z,1.30
2023-03-19T06:35:51.653Z,1.50
2023-03-19T06:39:56.707Z,1.70
2023-03-19T06:44:02.543Z,1.80
2023-03-19T06:48:06.782Z,2.00
2023-03-19T06:52:10.687Z,2.10
2023-03-19T06:56:17.028Z,2.40
2023-03-19T07:00:22.776Z,2.60
2023-03-19T07:04:26.391Z,2.80
2023-03-19T07:08:35.098Z,3.10
2023-03-19T07:12:43.782Z,3.20
2023-03-19T07:16:48.034Z,3.50
2023-03-19T07:20:53.139Z,3.80
2023-03-19T07:24:59.988Z,4.20
2023-03-19T07:29:05.982Z,4.70
2023-03-19T07:33:10.268Z,5.10
2023-03-19T07:37:13.945Z,5.70
2023-03-19T07:41:17.884Z,6.20
2023-03-19T07:45:24.894Z,6.90
2023-03-19T07:49:30.002Z,7.80
2023-03-19T07:53:33.900Z,8.60
2023-03-19T07:57:37.639Z,9.30
2023-03-19T08:01:45.545Z,9.70
2023-03-19T08:05:50.135Z,9.70
2023-03-19T08:09:53.741Z,10.20
2023-03-19T08:13:57.672Z,10.60
2023-03-19T08:18:03.654Z,10.90
2023-03-19T08:22:07.539Z,11.30
2023-03-19T08:26:11.170Z,11.50
2023-03-19T08:30:16.070Z,11.40
2023-03-19T08:34:22.126Z,11.30
2023-03-19T08:38:25.715Z,11.30
2023-03-19T08:42:29.441Z,11.80
2023-03-19T08:46:33.898Z,12.10
2023-03-19T08:50:39.010Z,12.10
2023-03-19T08:54:50.134Z,12.90
2023-03-19T08:58:54.065Z,13.70
2023-03-19T09:03:17.671Z,15.30
2023-03-19T09:07:23.350Z,16.40
2023-03-19T09:11:31.205Z,16.90
2023-03-19T09:15:35.989Z,17.60
2023-03-19T09:19:40.007Z,18.20
2023-03-19T09:23:48.102Z,18.00
2023-03-19T09:27:52.282Z,19.60
2023-03-19T09:31:56.672Z,19.90
2023-03-19T09:36:01.812Z,19.30
2023-03-19T09:40:09.007Z,18.30
2023-03-19T09:44:16.100Z,17.20
2023-03-19T09:48:29.209Z,18.10
2023-03-19T09:52:41.579Z,18.00
2023-03-19T09:56:46.763Z,20.30
2023-03-19T10:00:53.095Z,21.00
2023-03-19T10:05:10.426Z,21.80
2023-03-19T10:09:32.985Z,20.80
2023-03-19T10:13:52.917Z,19.90
2023-03-19T10:18:02.258Z,20.50
2023-03-19T10:22:15.639Z,20.30
2023-03-19T10:26:21.778Z,19.60
2023-03-19T10:30:27.498Z,19.80
2023-03-19T10:34:33.424Z,20.90
2023-03-19T10:38:41.718Z,21.30
2023-03-19T10:42:55.434Z,21.00
2023-03-19T10:47:13.141Z,21.50
2023-03-19T10:51:18.991Z,21.00
2023-03-19T10:55:29.905Z,19.40
2023-03-19T10:59:38.399Z,18.80
2023-03-19T11:03:53.098Z,19.40
2023-03-19T11:08:02.319Z,18.80
2023-03-19T11:12:20.684Z,18.50
2023-03-19T11:16:24.528Z,18.90
2023-03-19T11:20:34.616Z,19.10
2023-03-19T11:24:40.544Z,19.30
2023-03-19T11:28:47.445Z,20.10
2023-03-19T11:33:17.279Z,20.30
2023-03-19T11:37:32.717Z,19.90
2023-03-19T11:41:50.890Z,21.00
2023-03-19T11:46:06.571Z,22.60
2023-03-19T11:50:21.524Z,24.00
2023-03-19T11:54:34.696Z,25.30
2023-03-19T11:59:12.827Z,24.80
2023-03-19T12:03:54.493Z,24.40
2023-03-19T12:08:14.043Z,24.60
2023-03-19T12:12:27.123Z,24.60
2023-03-19T12:16:46.189Z,26.70
2023-03-19T12:21:01.940Z,28.30
2023-03-19T12:25:20.943Z,25.80
2023-03-19T12:29:34.642Z,28.00
2023-03-19T12:33:45.109Z,29.80
2023-03-19T12:37:58.018Z,29.90
2023-03-19T12:42:03.816Z,27.80
2023-03-19T12:46:14.138Z,27.50
2023-03-19T12:50:20.195Z,28.20
2023-03-19T12:54:29.012Z,28.50
2023-03-19T12:58:45.249Z,26.90
2023-03-19T13:02:57.703Z,26.80
2023-03-19T13:07:07.307Z,26.00
2023-03-19T13:11:17.056Z,24.40
2023-03-19T13:15:27.195Z,22.90
2023-03-19T13:19:44.269Z,22.80
2023-03-19T13:23:51.277Z,21.80
2023-03-19T13:27:56.338Z,21.00
2023-03-19T13:32:06.879Z,21.60
2023-03-19T13:36:17.763Z,21.60
2023-03-19T13:40:43.486Z,21.00
2023-03-19T13:44:52.214Z,20.90
2023-03-19T13:48:55.970Z,19.60
2023-03-19T13:53:34.806Z,19.50
2023-03-19T13:57:41.308Z,19.40
2023-03-19T14:01:47.570Z,19.10
2023-03-19T14:05:53.963Z,19.50
2023-03-19T14:10:11.166Z,20.10
2023-03-19T14:14:17.640Z,19.90
2023-03-19T14:18:24.809Z,19.30
2023-03-19T14:22:37.304Z,18.70
2023-03-19T14:26:45.935Z,18.80
2023-03-19T14:30:50.907Z,18.50
2023-03-19T14:34:56.808Z,18.60
2023-03-19T14:39:04.208Z,17.90
2023-03-19T14:43:19.561Z,17.10
2023-03-19T14:47:35.462Z,17.20
2023-03-19T14:51:55.164Z,17.20
2023-03-19T14:56:10.995Z,16.50
2023-03-19T15:00:19.827Z,16.30
2023-03-19T15:04:26.518Z,16.10
2023-03-19T15:08:33.518Z,16.00
2023-03-19T15:12:46.373Z,16.10
2023-03-19T15:16:59.765Z,16.20
2023-03-19T15:21:06.132Z,15.90
2023-03-19T15:25:12.145Z,15.90
2023-03-19T15:29:18.607Z,15.90
2023-03-19T15:33:38.908Z,15.70
2023-03-19T15:37:53.771Z,15.10
2023-03-19T15:42:01.610Z,14.90
2023-03-19T15:46:08.168Z,15.00
2023-03-19T15:50:18.429Z,15.10
2023-03-19T15:54:23.832Z,15.00
2023-03-19T15:58:35.386Z,14.90
2023-03-19T16:02:43.544Z,14.60
2023-03-19T16:06:52.980Z,14.50
2023-03-19T16:11:15.211Z,14.40
2023-03-19T16:15:26.532Z,14.30
2023-03-19T16:19:34.240Z,14.20
2023-03-19T16:23:47.129Z,14.10
2023-03-19T16:27:53.573Z,14.00
2023-03-19T16:32:03.375Z,13.80
2023-03-19T16:36:12.434Z,13.60
2023-03-19T16:40:45.645Z,13.40
2023-03-19T16:44:53.588Z,13.20
2023-03-19T16:48:59.794Z,13.00
2023-03-19T16:53:08.414Z,12.80
2023-03-19T16:57:17.716Z,12.50
2023-03-19T17:01:25.728Z,12.30
2023-03-19T17:05:33.971Z,12.10
2023-03-19T17:09:46.034Z,11.90
2023-03-19T17:13:56.606Z,11.60
2023-03-19T17:18:03.016Z,11.40
2023-03-19T17:22:11.967Z,11.20
2023-03-19T17:26:20.665Z,11.00
2023-03-19T17:30:28.904Z,11.00
2023-03-19T17:34:38.991Z,11.00
2023-03-19T17:38:45.752Z,10.90
2023-03-19T17:42:53.516Z,10.90
2023-03-19T17:47:01.489Z,10.80
2023-03-19T17:51:08.870Z,10.70
2023-03-19T17:55:22.271Z,10.50
2023-03-19T17:59:36.551Z,10.50
2023-03-19T18:03:43.988Z,10.40
2023-03-19T18:07:53.768Z,10.40
2023-03-19T18:11:59.378Z,10.40
2023-03-19T18:16:11.020Z,10.20
2023-03-19T18:20:23.129Z,10.20
2023-03-19T18:24:30.961Z,10.10
2023-03-19T18:28:36.619Z,10.00
2023-03-19T18:32:46.130Z,9.80
2023-03-19T18:36:56.105Z,9.80
2023-03-19T18:41:03.484Z,9.70
2023-03-19T18:45:09.834Z,9.50
2023-03-19T18:49:26.053Z,9.30
2023-03-19T18:53:31.969Z,9.20
2023-03-19T18:57:39.044Z,9.10
2023-03-19T19:01:48.069Z,9.00
2023-03-19T19:05:54.854Z,8.90
2023-03-19T19:10:02.493Z,8.80
2023-03-19T19:14:15.785Z,8.70
2023-03-19T19:18:24.737Z,8.60
2023-03-19T19:22:33.156Z,8.50
2023-03-19T19:26:42.365Z,8.40
2023-03-19T19:30:48.617Z,8.30
2023-03-19T19:34:56.328Z,8.20
2023-03-19T19:39:02.279Z,8.00
2023-03-19T19:43:14.800Z,8.00
2023-03-19T19:47:20.501Z,7.90
2023-03-19T19:51:29.175Z,7.80
2023-03-19T19:55:35.716Z,7.80
2023-03-19T20:00:02.135Z,7.80
2023-03-19T20:04:08.411Z,7.80
2023-03-19T20:08:15.553Z,7.80
2023-03-19T20:12:24.680Z,7.60
2023-03-19T20:16:35.049Z,7.60
2023-03-19T20:20:43.214Z,7.40
2023-03-19T20:24:51.241Z,7.20
2023-03-19T20:29:00.115Z,7.10
2023-03-19T20:33:10.559Z,7.00
2023-03-19T20:37:19.311Z,6.80
2023-03-19T20:41:28.922Z,6.70
2023-03-19T20:45:40.735Z,6.60
2023-03-19T20:49:49.157Z,6.50
2023-03-19T20:53:57.437Z,6.40
2023-03-19T20:58:07.600Z,6.30
2023-03-19T21:02:22.008Z,6.30
2023-03-19T21:06:42.725Z,6.10
2023-03-19T21:10:56.410Z,6.00
2023-03-19T21:15:02.327Z,6.00
2023-03-19T21:19:07.634Z,5.80
2023-03-19T21:23:19.167Z,5.70
2023-03-19T21:27:26.602Z,5.50
2023-03-19T21:31:31.457Z,5.40
2023-03-19T21:35:37.037Z,5.30
2023-03-19T21:39:43.078Z,5.30
2023-03-19T21:43:50.959Z,5.20
2023-03-19T21:47:56.465Z,5.10
2023-03-19T21:52:00.201Z,5.10
2023-03-19T21:56:05.486Z,5.00
2023-03-19T22:00:14.125Z,4.80
2023-03-19T22:04:19.367Z,4.80
2023-03-19T22:08:25.002Z,4.70
2023-03-19T22:12:32.507Z,4.60
2023-03-19T22:16:37.263Z,4.60
2023-03-19T22:20:41.333Z,4.50
2023-03-19T22:24:45.014Z,4.40
2023-03-19T22:28:50.088Z,4.30
2023-03-19T22:32:59.777Z,4.30
2023-03-19T22:37:12.515Z,4.20
2023-03-19T22:41:18.739Z,4.10
2023-03-19T22:45:27.513Z,4.10
2023-03-19T22:49:31.684Z,4.10
2023-03-19T22:53:37.276Z,4.10
2023-03-19T22:57:40.947Z,4.10
2023-03-19T23:01:47.604Z,4.00
2023-03-19T23:05:54.181Z,3.90
2023-03-19T23:09:58.114Z,3.90
2023-03-19T23:14:02.214Z,3.90
2023-03-19T23:18:16.263Z,4.00
2023-03-19T23:22:19.842Z,3.90
2023-03-19T23:26:29.440Z,3.80
2023-03-19T23:30:34.629Z,3.80
2023-03-19T23:34:56.367Z,3.80
2023-03-19T23:39:02.178Z,3.80
2023-03-19T23:43:06.512Z,3.60
2023-03-19T23:47:11.070Z,3.60
2023-03-19T23:51:17.347Z,3.70
2023-03-19T23:55:21.201Z,3.70
2023-03-19T23:59:24.767Z,3.70
